createdAt,value
2019-01-25T00:02:15.616Z,2.60
2019-01-25T00:04:46.049Z,2.60
2019-01-25T00:09:45.949Z,2.50
2019-01-25T00:12:16.305Z,2.40
2019-01-25T00:19:45.840Z,2.10
2019-01-25T00:22:16.185Z,1.80
2019-01-25T00:24:46.559Z,1.60
2019-01-25T00:29:46.485Z,1.20
2019-01-25T00:32:16.810Z,1.20
2019-01-25T00:34:47.164Z,0.90
2019-01-25T00:37:17.495Z,0.90
2019-01-25T00:49:46.460Z,0.70
2019-01-25T00:54:46.344Z,0.70
2019-01-25T00:59:46.472Z,0.60
2019-01-25T01:02:16.802Z,0.70
2019-01-25T01:09:46.324Z,0.40
2019-01-25T01:12:16.687Z,0.30
2019-01-25T01:17:16.856Z,0.20
2019-01-25T01:19:47.189Z,0.30
2019-01-25T01:22:17.501Z,0.30
2019-01-25T01:27:17.459Z,0.20
2019-01-25T01:29:47.805Z,0.20
2019-01-25T01:32:18.136Z,0.30
2019-01-25T01:37:18.183Z,0.30
2019-01-25T01:47:17.432Z,0.20
2019-01-25T01:52:17.432Z,0.10
2019-01-25T01:59:47.014Z,0.20
2019-01-25T02:02:17.351Z,0.20
2019-01-25T02:04:47.702Z,0.40
2019-01-25T02:09:48.535Z,0.30
2019-01-25T02:12:19.499Z,0.20
2019-01-25T02:14:49.831Z,0.20
2019-01-25T02:19:50.015Z,0.40
2019-01-25T02:24:49.916Z,0.30
2019-01-25T02:27:20.247Z,0.20
2019-01-25T02:29:50.592Z,0.30
2019-01-25T02:32:20.904Z,0.20
2019-01-25T02:34:51.217Z,0.20
2019-01-25T02:42:20.745Z,-0.10
2019-01-25T02:44:51.079Z,0.00
2019-01-25T02:49:51.044Z,0.20
2019-01-25T02:52:21.360Z,0.20
2019-01-25T02:54:51.691Z,0.10
2019-01-25T02:59:51.622Z,0.20
2019-01-25T03:02:21.942Z,0.10
2019-01-25T03:09:51.486Z,0.10
2019-01-25T03:14:51.408Z,0.00
2019-01-25T03:19:51.363Z,0.20
2019-01-25T03:22:21.681Z,0.30
2019-01-25T03:24:52.014Z,0.20
2019-01-25T03:29:51.965Z,0.40
2019-01-25T03:32:22.293Z,0.20
2019-01-25T03:34:52.609Z,0.10
2019-01-25T03:37:22.937Z,0.20
2019-01-25T03:42:22.883Z,0.20
2019-01-25T03:44:53.227Z,1.60
2019-01-25T03:49:53.176Z,0.40
2019-01-25T03:52:23.543Z,0.40
2019-01-25T03:57:23.433Z,0.60
2019-01-25T03:59:53.791Z,0.70
2019-01-25T04:02:24.118Z,0.80
2019-01-25T04:07:24.046Z,1.10
2019-01-25T04:09:54.385Z,1.20
2019-01-25T04:12:24.708Z,1.20
2019-01-25T04:14:55.043Z,1.30
2019-01-25T04:19:54.932Z,1.60
2019-01-25T04:24:54.919Z,1.70
2019-01-25T04:29:54.943Z,1.90
2019-01-25T04:32:25.276Z,1.90
2019-01-25T04:34:55.620Z,1.90
2019-01-25T04:37:25.976Z,2.10
2019-01-25T04:39:56.310Z,2.10
2019-01-25T04:47:28.740Z,2.10
2019-01-25T04:49:59.068Z,2.10
2019-01-25T04:52:29.702Z,2.00
2019-01-25T04:55:03.052Z,1.90
2019-01-25T04:57:33.407Z,1.70
2019-01-25T05:00:03.734Z,1.80
2019-01-25T05:02:34.069Z,1.80
2019-01-25T05:05:05.100Z,1.70
2019-01-25T05:10:05.514Z,1.60
2019-01-25T05:15:06.169Z,1.70
2019-01-25T05:17:36.491Z,1.80
2019-01-25T05:22:36.550Z,2.00
2019-01-25T05:25:06.902Z,2.00
2019-01-25T05:30:09.609Z,2.00
2019-01-25T05:32:39.925Z,2.00
2019-01-25T05:35:10.265Z,2.00
2019-01-25T05:40:12.289Z,2.20
2019-01-25T05:52:41.852Z,2.10
2019-01-25T06:02:46.864Z,2.50
2019-01-25T06:10:16.409Z,2.60
2019-01-25T06:12:52.975Z,2.70
2019-01-25T06:18:01.315Z,2.70
2019-01-25T06:20:31.647Z,2.80
2019-01-25T06:23:01.972Z,2.80
2019-01-25T06:28:04.152Z,2.80
2019-01-25T06:33:04.199Z,3.00
2019-01-25T06:38:04.133Z,3.20
2019-01-25T06:40:34.484Z,3.20
2019-01-25T06:50:35.101Z,3.30
2019-01-25T06:58:22.776Z,3.40
2019-01-25T07:08:41.583Z,3.40
2019-01-25T07:11:12.011Z,3.50
2019-01-25T07:16:11.937Z,3.50
2019-01-25T07:18:42.272Z,3.60
2019-01-25T07:21:12.692Z,3.90
2019-01-25T07:26:12.682Z,4.00
2019-01-25T07:31:12.858Z,4.30
2019-01-25T07:36:13.139Z,4.60
2019-01-25T07:41:13.092Z,4.80
2019-01-25T07:46:13.008Z,4.80
2019-01-25T07:51:12.955Z,5.10
2019-01-25T07:58:42.450Z,5.40
2019-01-25T08:08:41.632Z,5.50
2019-01-25T08:11:11.986Z,5.60
2019-01-25T08:13:42.316Z,5.70
2019-01-25T08:16:12.653Z,5.70
2019-01-25T08:21:12.653Z,5.90
2019-01-25T08:26:12.606Z,6.00
2019-01-25T08:28:42.924Z,6.00
2019-01-25T08:36:12.613Z,6.20
2019-01-25T08:38:42.945Z,6.30
2019-01-25T08:46:12.561Z,6.40
2019-01-25T08:48:42.902Z,6.40
2019-01-25T08:56:12.430Z,6.60
2019-01-25T09:01:12.373Z,6.50
2019-01-25T09:03:42.712Z,6.70
2019-01-25T09:06:13.060Z,6.80
2019-01-25T09:16:12.452Z,7.00
2019-01-25T09:18:42.795Z,7.10
2019-01-25T09:21:13.112Z,6.90
2019-01-25T09:23:43.429Z,7.10
2019-01-25T09:28:44.260Z,7.10
2019-01-25T09:31:14.580Z,7.10
2019-01-25T09:38:44.080Z,7.20
2019-01-25T09:43:44.030Z,7.20
2019-01-25T09:46:14.431Z,7.30
2019-01-25T09:48:44.784Z,7.40
2019-01-25T09:51:15.111Z,7.50
2019-01-25T09:56:15.080Z,7.60
2019-01-25T10:13:43.947Z,8.00
2019-01-25T10:16:14.292Z,8.10
2019-01-25T10:21:14.218Z,8.20
2019-01-25T10:28:43.948Z,8.10
2019-01-25T10:38:43.014Z,8.20
2019-01-25T10:41:13.380Z,8.20
2019-01-25T10:46:13.293Z,8.20
2019-01-25T10:48:43.617Z,8.20
2019-01-25T10:58:42.711Z,8.50
2019-01-25T11:01:13.032Z,8.70
2019-01-25T11:03:43.412Z,8.70
2019-01-25T11:06:13.740Z,9.00
2019-01-25T11:08:44.141Z,8.80
2019-01-25T11:11:14.456Z,8.60
2019-01-25T11:16:14.398Z,8.60
2019-01-25T11:21:14.296Z,9.10
2019-01-25T11:26:14.256Z,9.10
2019-01-25T11:31:14.232Z,9.00
2019-01-25T11:38:43.739Z,8.90
2019-01-25T11:41:14.061Z,8.80
2019-01-25T11:46:14.044Z,8.90
2019-01-25T11:51:13.969Z,9.00
2019-01-25T12:03:42.752Z,9.20
2019-01-25T12:06:13.097Z,9.30
2019-01-25T12:08:43.432Z,9.40
2019-01-25T12:11:13.785Z,9.60
2019-01-25T12:16:13.697Z,9.60
2019-01-25T12:28:42.484Z,9.40
2019-01-25T12:31:12.848Z,9.50
2019-01-25T12:36:13.029Z,9.20
2019-01-25T12:38:43.390Z,8.90
2019-01-25T12:41:13.757Z,8.90
2019-01-25T12:43:44.073Z,9.00
2019-01-25T12:46:14.527Z,8.90
2019-01-25T12:51:24.197Z,8.90
2019-01-25T12:53:54.588Z,8.90
2019-01-25T13:03:54.096Z,9.20
2019-01-25T13:06:24.990Z,9.30
2019-01-25T13:08:55.360Z,9.40
2019-01-25T13:16:26.024Z,9.60
2019-01-25T13:23:55.671Z,9.70
2019-01-25T13:28:55.633Z,9.90
2019-01-25T13:31:26.057Z,9.80
2019-01-25T13:38:55.544Z,9.80
2019-01-25T13:41:27.468Z,9.80
2019-01-25T13:46:27.507Z,9.80
2019-01-25T13:56:26.656Z,9.80
2019-01-25T14:08:55.439Z,9.50
2019-01-25T14:11:25.827Z,9.50
2019-01-25T14:16:25.718Z,9.50
2019-01-25T14:21:26.842Z,9.60
2019-01-25T14:26:26.778Z,9.70
2019-01-25T14:38:55.453Z,9.70
2019-01-25T14:41:25.828Z,9.70
2019-01-25T14:46:25.774Z,9.80
2019-01-25T14:56:24.996Z,9.90
2019-01-25T15:01:24.912Z,10.00
2019-01-25T15:03:55.284Z,9.90
2019-01-25T15:06:25.611Z,9.90
2019-01-25T15:11:25.529Z,9.90
2019-01-25T15:14:02.260Z,9.90
2019-01-25T15:16:27.868Z,9.90
2019-01-25T15:26:26.992Z,10.00
2019-01-25T15:28:57.308Z,10.00
2019-01-25T15:41:26.144Z,10.20
2019-01-25T15:48:57.463Z,10.40
2019-01-25T15:58:56.653Z,10.30
2019-01-25T16:01:27.011Z,10.30
2019-01-25T16:06:26.916Z,10.40
2019-01-25T16:16:26.196Z,10.30
2019-01-25T16:18:56.628Z,10.30
2019-01-25T16:26:26.148Z,10.30
2019-01-25T16:31:26.193Z,10.30
2019-01-25T16:36:26.172Z,10.20
2019-01-25T16:46:25.272Z,10.30
2019-01-25T16:51:25.209Z,10.20
2019-01-25T16:58:54.737Z,10.30
2019-01-25T17:01:25.249Z,10.20
2019-01-25T17:03:55.615Z,10.30
2019-01-25T17:06:25.934Z,10.30
2019-01-25T17:08:56.320Z,10.20
2019-01-25T17:16:25.947Z,10.20
2019-01-25T17:21:25.854Z,10.20
2019-01-25T17:23:56.291Z,10.30
2019-01-25T17:28:56.316Z,10.20
2019-01-25T17:36:25.995Z,10.10
2019-01-25T17:38:56.368Z,10.00
2019-01-25T17:43:56.461Z,9.90
2019-01-25T17:51:27.274Z,9.90
2019-01-25T17:56:27.395Z,10.00
2019-01-25T18:06:26.641Z,10.10
2019-01-25T18:11:26.617Z,10.00
2019-01-25T18:18:56.271Z,10.10
2019-01-25T18:21:26.640Z,10.20
2019-01-25T18:26:27.076Z,10.20
2019-01-25T18:31:34.881Z,10.20
2019-01-25T18:36:35.482Z,10.10
2019-01-25T18:39:08.849Z,10.10
2019-01-25T18:41:39.207Z,10.00
2019-01-25T18:51:38.684Z,10.00
2019-01-25T18:56:38.817Z,10.00
2019-01-25T19:06:38.170Z,9.90
2019-01-25T19:11:39.148Z,9.90
2019-01-25T19:21:38.704Z,10.10
2019-01-25T19:31:38.026Z,10.00
2019-01-25T19:46:38.968Z,9.70
2019-01-25T19:49:09.412Z,9.70
2019-01-25T19:54:09.488Z,9.70
2019-01-25T19:56:39.816Z,9.70
2019-01-25T20:21:38.398Z,9.40
2019-01-25T20:31:37.603Z,9.40
2019-01-25T20:36:37.517Z,9.30
2019-01-25T20:41:38.500Z,9.00
2019-01-25T20:46:38.500Z,9.10
2019-01-25T20:51:38.542Z,8.90
2019-01-25T20:56:38.567Z,8.80
2019-01-25T21:01:38.499Z,8.80
2019-01-25T21:16:38.743Z,8.70
2019-01-25T21:21:38.677Z,8.60
2019-01-25T21:26:40.320Z,8.60
2019-01-25T21:29:10.663Z,8.50
2019-01-25T21:36:40.273Z,8.50
2019-01-25T21:41:40.367Z,8.40
2019-01-25T21:46:40.816Z,8.40
2019-01-25T21:51:40.797Z,8.40
2019-01-25T21:54:11.122Z,8.30
2019-01-25T21:56:41.448Z,8.30
2019-01-25T21:59:11.812Z,8.20
2019-01-25T22:01:42.169Z,8.20
2019-01-25T22:11:41.925Z,8.10
2019-01-25T22:16:41.921Z,8.00
2019-01-25T22:21:41.880Z,8.10
2019-01-25T22:26:41.885Z,8.00
2019-01-25T22:29:12.236Z,7.90
2019-01-25T22:34:12.184Z,8.00
2019-01-25T22:36:42.563Z,8.00
2019-01-25T22:39:12.882Z,8.00
2019-01-25T22:41:43.225Z,7.90
2019-01-25T22:44:13.628Z,7.90
2019-01-25T22:46:43.956Z,7.80
2019-01-25T22:51:43.859Z,7.90
2019-01-25T22:54:14.236Z,7.80
2019-01-25T22:56:44.609Z,7.80
2019-01-25T22:59:14.924Z,7.90
2019-01-25T23:01:45.539Z,7.90
2019-01-25T23:05:08.605Z,8.00
2019-01-25T23:07:38.979Z,8.00
2019-01-25T23:10:19.872Z,7.90
2019-01-25T23:12:50.212Z,7.80
2019-01-25T23:15:21.297Z,7.80
2019-01-25T23:17:52.088Z,7.80
2019-01-25T23:20:22.520Z,7.70
2019-01-25T23:22:52.855Z,7.70
2019-01-25T23:25:23.177Z,7.70
2019-01-25T23:27:53.541Z,7.60
2019-01-25T23:30:23.852Z,7.70
2019-01-25T23:32:54.256Z,7.60
2019-01-25T23:35:24.563Z,7.50
2019-01-25T23:37:54.888Z,7.70
2019-01-25T23:42:54.813Z,7.60
2019-01-25T23:45:25.200Z,7.50
2019-01-25T23:50:25.156Z,7.30
2019-01-25T23:52:55.487Z,7.20
2019-01-25T23:55:25.844Z,7.20
2019-01-25T23:57:56.168Z,7.20
